Midas, Nevada
Current Conditions -  °F | °C
As of 3:56 AM on Wednesday 28 Jan 2015 (Local Time) from KWMC Reporting Station
Clear Clear  
Wind Chill: 34°   Ceiling: Unl
Heat Index: 34°   Visibility: 10mi
Dew Point: 32°   Wind: 3mph
Humidity: 92%   Direction: 360°N
Pressure: 30.29"   Gusts: NA
Location:  41.013°N, 117.293°W
Report Text: KWMC 281156Z AUTO 36003KT 10SM CLR 01/00 A3029 RMK AO2 SLP262 70027 T00110000 10050 20011 51008
Loading
Personal Weather Stations






























Interactive Weather Map New forecast layout! Learn more

10-Day Weather Forecast

Advertisements
Track Severe Weather on mobile